Northeast Wyoming Rgnl Information

FAA: GCC - ICAO: KGCC

Northeast Wyoming Rgnl (Airport) Location

State Wyoming
County Campbell
City Gillette
Northeast Wyoming Rgnl (Airport) is 4 miles northwest of Gillette, WY.
Latitude 44-20-56.0690N
Longitude 105-32-21.7230W
Elevation 4,365ft

Northeast Wyoming Rgnl METARs

METAR KGCC 191153Z AUTO 17009KT 10SM FEW110 11/06 A2951 RMK AO2 SLP961 T01110056 10156 20100 56030
Altimeter 29.51"
Temperature 11.1°C (52.0°F)
Wind 170° at 9KT
Clouds few at 11,000ft
Visibility 10.0mi
Time observed: 2022-05-19T11:53:00Z

Northeast Wyoming Rgnl (Airport) Details

Status Operational
Activation November 1937
Ownership Public
Usage Public
Chart CHEYENNE
ATC on-site Yes
Beacon schedule sunset-sunrise
Beacon color clear green

Northeast Wyoming Rgnl (Airport) Contacts

Owner CAMPBELL CO
Owner address 2000 AIRPORT ROAD SUITE 108, GILLETTE, WY 82716
Owner phone 307-686-1042
Manager CHRIS RUSSELL
Manager address 3672 AVIATOR CT., CHEYENNE, WY 82009
Manager phone (307) 630-4775

Northeast Wyoming Rgnl Radio Frequencies

Northeast Wyoming Rgnl (Airport) Radio Frequencies

UNICOM 122.95
Common traffic advisory frequency (CTAF) 118.5